createdAt,value
2022-10-15T00:01:50.534Z,11.90
2022-10-15T00:06:52.153Z,11.92
2022-10-15T00:11:53.976Z,11.89
2022-10-15T00:16:55.610Z,11.84
2022-10-15T00:21:57.228Z,11.73
2022-10-15T00:26:58.790Z,11.68
2022-10-15T00:32:00.343Z,11.62
2022-10-15T00:37:02.100Z,11.52
2022-10-15T00:42:04.716Z,11.33
2022-10-15T00:47:18.331Z,11.28
2022-10-15T00:52:25.920Z,11.30
2022-10-15T00:57:28.139Z,11.31
2022-10-15T01:02:30.180Z,11.32
2022-10-15T01:07:31.801Z,11.37
2022-10-15T01:13:01.476Z,11.43
2022-10-15T01:18:14.777Z,11.40
2022-10-15T01:23:16.883Z,11.40
2022-10-15T01:28:52.663Z,11.38
2022-10-15T01:33:54.174Z,11.33
2022-10-15T01:39:00.873Z,11.42
2022-10-15T01:44:10.889Z,11.44
2022-10-15T01:49:33.129Z,11.31
2022-10-15T01:54:39.635Z,11.23
2022-10-15T01:59:42.807Z,11.28
2022-10-15T02:04:44.652Z,11.36
2022-10-15T02:10:05.487Z,11.38
2022-10-15T02:15:10.803Z,11.35
2022-10-15T02:20:19.042Z,11.31
2022-10-15T02:25:23.788Z,11.33
2022-10-15T02:30:27.395Z,11.35
2022-10-15T02:35:29.357Z,11.39
2022-10-15T02:40:35.095Z,11.42
2022-10-15T02:45:38.270Z,11.46
2022-10-15T02:50:39.879Z,11.49
2022-10-15T02:55:54.270Z,11.53
2022-10-15T03:00:56.099Z,11.52
2022-10-15T03:05:57.994Z,11.54
2022-10-15T03:11:01.585Z,11.47
2022-10-15T03:16:08.733Z,11.43
2022-10-15T03:21:11.866Z,11.44
2022-10-15T03:26:15.238Z,11.37
2022-10-15T03:31:17.219Z,11.35
2022-10-15T03:36:22.441Z,11.35
2022-10-15T03:41:24.276Z,11.46
2022-10-15T03:46:26.554Z,11.46
2022-10-15T03:51:31.422Z,11.48
2022-10-15T03:56:39.862Z,11.40
2022-10-15T04:01:56.998Z,11.37
2022-10-15T04:06:59.118Z,11.40
2022-10-15T04:12:02.047Z,11.46
2022-10-15T04:17:04.031Z,11.47
2022-10-15T04:22:06.739Z,11.49
2022-10-15T04:27:20.732Z,11.51
2022-10-15T04:32:22.972Z,11.55
2022-10-15T04:37:25.438Z,11.57
2022-10-15T04:42:31.701Z,11.55
2022-10-15T04:47:34.850Z,11.55
2022-10-15T04:52:43.073Z,11.56
2022-10-15T04:57:47.433Z,11.57
2022-10-15T05:02:53.142Z,11.58
2022-10-15T05:08:07.898Z,11.57
2022-10-15T05:13:30.090Z,11.61
2022-10-15T05:18:32.424Z,11.60
2022-10-15T05:23:36.790Z,11.63
2022-10-15T05:29:07.782Z,11.64
2022-10-15T05:34:09.734Z,11.64
2022-10-15T05:39:19.705Z,11.64
2022-10-15T05:44:21.480Z,11.64
2022-10-15T05:49:23.359Z,11.67
2022-10-15T05:54:32.979Z,11.73
2022-10-15T05:59:34.725Z,11.80
2022-10-15T06:04:36.581Z,11.90
2022-10-15T06:09:38.369Z,12.01
2022-10-15T06:14:40.144Z,12.07
2022-10-15T06:19:41.941Z,12.15
2022-10-15T06:24:43.692Z,12.22
2022-10-15T06:29:45.452Z,12.27
2022-10-15T06:34:47.254Z,12.29
2022-10-15T06:39:49.027Z,12.60
2022-10-15T06:44:50.760Z,12.94
2022-10-15T06:49:52.491Z,13.02
2022-10-15T06:54:54.250Z,13.27
2022-10-15T06:59:56.577Z,13.51
2022-10-15T07:04:58.385Z,13.72
2022-10-15T07:10:00.173Z,13.96
2022-10-15T07:15:01.920Z,14.18
2022-10-15T07:20:04.096Z,14.20
2022-10-15T07:25:06.095Z,14.11
2022-10-15T07:30:08.698Z,14.04
2022-10-15T07:35:10.426Z,14.07
2022-10-15T07:40:12.515Z,14.24
2022-10-15T07:45:16.029Z,14.48
2022-10-15T07:50:18.478Z,14.75
2022-10-15T07:55:21.229Z,15.09
2022-10-15T08:00:23.094Z,15.14
2022-10-15T08:05:24.938Z,15.03
2022-10-15T08:10:27.563Z,14.96
2022-10-15T08:15:29.357Z,14.84
2022-10-15T08:20:31.131Z,14.65
2022-10-15T08:25:32.907Z,14.42
2022-10-15T08:30:34.682Z,14.36
2022-10-15T08:35:44.055Z,14.49
2022-10-15T08:40:51.874Z,14.64
2022-10-15T08:46:00.932Z,14.85
2022-10-15T08:51:09.841Z,14.82
2022-10-15T08:56:22.473Z,14.51
2022-10-15T09:01:37.123Z,14.33
2022-10-15T09:06:39.712Z,14.26
2022-10-15T09:12:09.284Z,14.40
2022-10-15T09:17:33.513Z,14.58
2022-10-15T09:22:36.245Z,14.90
2022-10-15T09:27:39.136Z,15.08
2022-10-15T09:32:58.320Z,15.00
2022-10-15T09:38:13.278Z,15.16
2022-10-15T09:43:28.284Z,15.24
2022-10-15T09:48:40.191Z,15.12
2022-10-15T09:54:10.586Z,15.11
2022-10-15T09:59:18.395Z,15.77
2022-10-15T10:04:21.009Z,16.34
2022-10-15T10:09:36.074Z,15.93
2022-10-15T10:14:53.373Z,15.87
2022-10-15T10:20:10.367Z,15.68
2022-10-15T10:25:27.683Z,17.00
2022-10-15T10:30:34.137Z,17.03
2022-10-15T10:35:50.226Z,16.45
2022-10-15T10:40:59.190Z,16.00
2022-10-15T10:46:14.953Z,15.71
2022-10-15T10:51:23.423Z,15.68
2022-10-15T10:56:39.415Z,16.29
2022-10-15T11:01:41.542Z,16.52
2022-10-15T11:07:03.604Z,17.32
2022-10-15T11:12:11.610Z,17.39
2022-10-15T11:17:36.316Z,18.39
2022-10-15T11:22:53.198Z,18.79
2022-10-15T11:28:33.222Z,17.75
2022-10-15T11:33:53.691Z,16.69
2022-10-15T11:39:21.612Z,16.39
2022-10-15T11:44:43.102Z,16.35
2022-10-15T11:49:48.419Z,16.55
2022-10-15T11:55:02.425Z,17.03
2022-10-15T12:00:20.197Z,16.98
2022-10-15T12:05:39.111Z,17.14
2022-10-15T12:11:13.021Z,17.67
2022-10-15T12:16:19.659Z,18.40
2022-10-15T12:21:40.221Z,18.26
2022-10-15T12:26:42.021Z,18.56
2022-10-15T12:32:04.091Z,18.07
2022-10-15T12:37:19.181Z,17.38
2022-10-15T12:42:23.003Z,17.13
2022-10-15T12:47:54.228Z,19.77
2022-10-15T12:53:05.631Z,20.19
2022-10-15T12:58:34.116Z,18.36
2022-10-15T13:03:51.206Z,19.09
2022-10-15T13:09:05.288Z,18.37
2022-10-15T13:14:19.315Z,20.18
2022-10-15T13:19:36.936Z,19.52
2022-10-15T13:24:45.552Z,18.45
2022-10-15T13:29:59.747Z,18.22
2022-10-15T13:35:04.005Z,17.95
2022-10-15T13:40:08.385Z,17.50
2022-10-15T13:45:18.590Z,17.42
2022-10-15T13:50:24.892Z,17.49
2022-10-15T13:55:30.768Z,17.84
2022-10-15T14:00:35.766Z,18.30
2022-10-15T14:05:37.603Z,18.34
2022-10-15T14:10:39.519Z,17.77
2022-10-15T14:15:54.660Z,17.53
2022-10-15T14:20:56.492Z,17.39
2022-10-15T14:26:03.488Z,17.21
2022-10-15T14:31:06.438Z,17.39
2022-10-15T14:36:11.081Z,17.47
2022-10-15T14:41:21.997Z,17.19
2022-10-15T14:46:23.813Z,16.94
2022-10-15T14:51:25.952Z,16.98
2022-10-15T14:56:33.378Z,16.96
2022-10-15T15:01:35.693Z,16.83
2022-10-15T15:06:37.769Z,16.85
2022-10-15T15:11:39.538Z,16.84
2022-10-15T15:16:41.262Z,16.79
2022-10-15T15:21:45.419Z,16.70
2022-10-15T15:26:47.190Z,16.69
2022-10-15T15:31:48.930Z,16.66
2022-10-15T15:36:50.761Z,16.55
2022-10-15T15:41:52.545Z,16.54
2022-10-15T15:46:56.029Z,16.55
2022-10-15T15:51:57.851Z,16.56
2022-10-15T15:56:59.618Z,16.40
2022-10-15T16:02:01.650Z,16.16
2022-10-15T16:07:03.960Z,16.03
2022-10-15T16:12:05.862Z,15.89
2022-10-15T16:17:07.594Z,15.74
2022-10-15T16:22:09.551Z,15.71
2022-10-15T16:27:14.035Z,15.36
2022-10-15T16:32:15.810Z,15.36
2022-10-15T16:37:17.591Z,15.27
2022-10-15T16:42:19.317Z,14.95
2022-10-15T16:47:21.517Z,14.56
2022-10-15T16:52:23.540Z,14.16
2022-10-15T16:57:26.535Z,13.75
2022-10-15T17:02:28.416Z,13.41
2022-10-15T17:07:30.325Z,13.28
2022-10-15T17:12:32.194Z,13.23
2022-10-15T17:17:33.969Z,13.17
2022-10-15T17:22:35.951Z,13.03
2022-10-15T17:27:37.662Z,13.08
2022-10-15T17:32:39.397Z,13.19
2022-10-15T17:37:41.160Z,13.27
2022-10-15T17:42:43.521Z,13.32
2022-10-15T17:47:45.322Z,13.18
2022-10-15T17:52:47.143Z,12.94
2022-10-15T17:57:48.882Z,12.64
2022-10-15T18:02:52.260Z,12.50
2022-10-15T18:07:54.009Z,12.40
2022-10-15T18:12:57.030Z,12.31
2022-10-15T18:17:58.851Z,12.16
2022-10-15T18:23:01.415Z,12.06
2022-10-15T18:28:07.013Z,11.93
2022-10-15T18:33:11.503Z,11.71
2022-10-15T18:38:13.316Z,11.58
2022-10-15T18:43:17.470Z,11.51
2022-10-15T18:48:21.270Z,11.46
2022-10-15T18:53:23.856Z,11.43
2022-10-15T18:58:25.592Z,11.46
2022-10-15T19:03:27.320Z,11.48
2022-10-15T19:08:31.023Z,11.67
2022-10-15T19:13:32.785Z,11.81
2022-10-15T19:18:37.140Z,11.71
2022-10-15T19:23:39.009Z,11.69
2022-10-15T19:28:41.042Z,11.85
2022-10-15T19:33:43.475Z,12.49
2022-10-15T19:38:45.223Z,13.60
2022-10-15T19:43:51.178Z,14.50
2022-10-15T19:48:53.079Z,14.84
2022-10-15T19:53:56.591Z,15.15
2022-10-15T19:59:00.314Z,15.30
2022-10-15T20:04:06.083Z,15.48
2022-10-15T20:09:09.630Z,15.65
2022-10-15T20:14:11.756Z,15.60
2022-10-15T20:19:13.629Z,15.61
2022-10-15T20:24:15.372Z,15.65
2022-10-15T20:29:17.544Z,15.65
2022-10-15T20:34:19.394Z,15.74
2022-10-15T20:39:22.024Z,15.74
2022-10-15T20:44:23.775Z,15.68
2022-10-15T20:49:30.089Z,15.70
2022-10-15T20:54:32.183Z,15.71
2022-10-15T20:59:33.913Z,15.74
2022-10-15T21:04:35.805Z,15.80
2022-10-15T21:09:37.592Z,15.83
2022-10-15T21:14:39.309Z,15.89
2022-10-15T21:19:41.090Z,15.84
2022-10-15T21:24:42.838Z,15.84
2022-10-15T21:29:45.566Z,15.81
2022-10-15T21:34:47.275Z,15.67
2022-10-15T21:39:49.050Z,15.64
2022-10-15T21:44:50.764Z,15.59
2022-10-15T21:49:52.548Z,15.55
2022-10-15T21:54:55.384Z,15.50
2022-10-15T21:59:57.370Z,15.42
2022-10-15T22:04:59.055Z,15.35
2022-10-15T22:10:00.865Z,15.31
2022-10-15T22:15:02.721Z,15.25
2022-10-15T22:20:04.846Z,15.23
2022-10-15T22:25:06.732Z,15.16
2022-10-15T22:30:08.989Z,15.01
2022-10-15T22:35:10.779Z,14.96
2022-10-15T22:40:12.591Z,14.91
2022-10-15T22:45:14.508Z,14.89
2022-10-15T22:50:16.448Z,14.76
2022-10-15T22:55:18.189Z,14.70
2022-10-15T23:00:20.476Z,14.70
2022-10-15T23:05:22.215Z,14.74
2022-10-15T23:10:23.986Z,14.84
2022-10-15T23:15:28.672Z,14.94
2022-10-15T23:20:33.684Z,14.96
2022-10-15T23:25:38.609Z,14.94
2022-10-15T23:30:40.355Z,14.88
2022-10-15T23:35:42.505Z,14.86
2022-10-15T23:40:44.267Z,14.80
2022-10-15T23:45:46.071Z,14.69
2022-10-15T23:50:47.965Z,14.52
2022-10-15T23:55:49.789Z,14.64
